createdAt,value
2022-09-10T00:00:58.204Z,13.97
2022-09-10T00:01:58.147Z,14.00
2022-09-10T00:02:58.160Z,13.90
2022-09-10T00:03:57.984Z,13.92
2022-09-10T00:04:57.940Z,13.90
2022-09-10T00:05:57.907Z,13.86
2022-09-10T00:06:57.969Z,13.90
2022-09-10T00:07:57.832Z,13.93
2022-09-10T00:08:57.825Z,13.87
2022-09-10T00:09:57.754Z,13.90
2022-09-10T00:10:57.731Z,13.96
2022-09-10T00:11:57.750Z,13.90
2022-09-10T00:12:57.749Z,13.89
2022-09-10T00:13:57.624Z,13.86
2022-09-10T00:14:57.613Z,13.78
2022-09-10T00:15:57.619Z,13.77
2022-09-10T00:16:57.534Z,13.77
2022-09-10T00:17:57.500Z,13.86
2022-09-10T00:18:57.538Z,13.81
2022-09-10T00:19:57.436Z,13.75
2022-09-10T00:20:57.406Z,13.75
2022-09-10T00:21:57.463Z,13.75
2022-09-10T00:22:57.371Z,13.70
2022-09-10T00:23:57.420Z,13.75
2022-09-10T00:24:57.298Z,13.85
2022-09-10T00:25:57.252Z,13.93
2022-09-10T00:26:57.225Z,13.95
2022-09-10T00:27:57.200Z,13.93
2022-09-10T00:28:57.184Z,13.87
2022-09-10T00:29:57.202Z,13.83
2022-09-10T00:30:57.177Z,13.86
2022-09-10T00:31:57.057Z,13.85
2022-09-10T00:32:57.033Z,13.81
2022-09-10T00:33:57.031Z,13.86
2022-09-10T00:34:57.040Z,13.87
2022-09-10T00:35:56.966Z,13.87
2022-09-10T00:36:56.923Z,13.81
2022-09-10T00:37:56.883Z,13.75
2022-09-10T00:38:56.858Z,13.71
2022-09-10T00:39:56.947Z,13.68
2022-09-10T00:40:56.789Z,13.68
2022-09-10T00:41:56.777Z,13.62
2022-09-10T00:42:56.721Z,13.68
2022-09-10T00:43:56.702Z,13.63
2022-09-10T00:44:56.756Z,13.59
2022-09-10T00:45:56.723Z,13.50
2022-09-10T00:46:56.616Z,13.56
2022-09-10T00:47:56.598Z,13.54
2022-09-10T00:48:56.531Z,13.62
2022-09-10T00:49:56.531Z,13.59
2022-09-10T00:50:56.581Z,13.59
2022-09-10T00:51:56.451Z,13.60
2022-09-10T00:52:56.403Z,13.62
2022-09-10T00:53:56.380Z,13.60
2022-09-10T00:54:56.349Z,13.57
2022-09-10T00:55:56.366Z,13.54
2022-09-10T00:56:56.334Z,13.57
2022-09-10T00:57:56.283Z,13.50
2022-09-10T00:58:56.252Z,13.47
2022-09-10T00:59:56.232Z,13.42
2022-09-10T01:00:56.228Z,13.42
2022-09-10T01:01:56.218Z,13.37
2022-09-10T01:02:56.123Z,13.38
2022-09-10T01:03:56.061Z,13.35
2022-09-10T01:04:56.063Z,13.41
2022-09-10T01:05:56.017Z,13.44
2022-09-10T01:06:56.048Z,13.41
2022-09-10T01:07:55.954Z,13.42
2022-09-10T01:08:55.930Z,13.44
2022-09-10T01:09:55.886Z,13.46
2022-09-10T01:10:55.859Z,13.41
2022-09-10T01:11:55.920Z,13.47
2022-09-10T01:12:55.779Z,13.31
2022-09-10T01:13:55.757Z,13.30
2022-09-10T01:14:55.738Z,13.31
2022-09-10T01:15:55.726Z,13.33
2022-09-10T01:16:55.679Z,13.18
2022-09-10T01:17:55.714Z,13.30
2022-09-10T01:18:55.604Z,13.22
2022-09-10T01:19:55.557Z,13.18
2022-09-10T01:20:55.523Z,13.13
2022-09-10T01:21:55.501Z,13.13
2022-09-10T01:22:55.539Z,13.22
2022-09-10T01:23:55.527Z,13.18
2022-09-10T01:24:55.397Z,13.12
2022-09-10T01:25:55.387Z,13.11
2022-09-10T01:26:55.345Z,13.11
2022-09-10T01:27:55.307Z,13.03
2022-09-10T01:28:55.445Z,13.08
2022-09-10T01:29:55.283Z,13.04
2022-09-10T01:30:55.224Z,13.11
2022-09-10T01:31:55.208Z,13.09
2022-09-10T01:32:55.165Z,13.09
2022-09-10T01:33:55.194Z,13.19
2022-09-10T01:34:55.115Z,13.18
2022-09-10T01:35:55.056Z,13.19
2022-09-10T01:36:55.026Z,13.18
2022-09-10T01:37:54.985Z,13.23
2022-09-10T01:38:55.020Z,13.13
2022-09-10T01:39:55.043Z,13.11
2022-09-10T01:40:54.929Z,13.15
2022-09-10T01:41:54.870Z,13.13
2022-09-10T01:42:54.827Z,13.13
2022-09-10T01:43:54.823Z,13.09
2022-09-10T01:44:54.865Z,13.03
2022-09-10T01:45:54.885Z,13.08
2022-09-10T01:46:54.729Z,13.03
2022-09-10T01:47:54.713Z,13.08
2022-09-10T01:48:54.679Z,13.03
2022-09-10T01:49:54.623Z,12.98
2022-09-10T01:50:54.701Z,13.00
2022-09-10T01:51:54.550Z,12.94
2022-09-10T01:52:54.510Z,13.00
2022-09-10T01:53:54.483Z,12.98
2022-09-10T01:54:54.518Z,12.94
2022-09-10T01:55:54.438Z,13.05
2022-09-10T01:56:54.470Z,13.05
2022-09-10T01:57:54.379Z,13.08
2022-09-10T01:58:54.354Z,13.01
2022-09-10T01:59:54.295Z,13.00
2022-09-10T02:00:54.330Z,13.05
2022-09-10T02:01:54.786Z,13.09
2022-09-10T02:02:54.242Z,13.03
2022-09-10T02:03:54.202Z,13.00
2022-09-10T02:04:54.164Z,12.90
2022-09-10T02:05:54.139Z,12.85
2022-09-10T02:06:54.072Z,12.82
2022-09-10T02:07:54.143Z,12.82
2022-09-10T02:08:54.011Z,12.80
2022-09-10T02:09:53.989Z,12.80
2022-09-10T02:10:53.989Z,12.82
2022-09-10T02:11:53.956Z,12.85
2022-09-10T02:12:53.883Z,12.83
2022-09-10T02:13:53.938Z,12.82
2022-09-10T02:14:53.822Z,12.85
2022-09-10T02:15:53.849Z,12.91
2022-09-10T02:16:53.789Z,12.97
2022-09-10T02:17:53.737Z,12.98
2022-09-10T02:18:53.725Z,13.08
2022-09-10T02:19:53.723Z,13.03
2022-09-10T02:20:53.663Z,13.05
2022-09-10T02:21:53.618Z,13.03
2022-09-10T02:22:53.579Z,13.03
2022-09-10T02:23:53.556Z,13.01
2022-09-10T02:24:53.601Z,13.01
2022-09-10T02:25:53.487Z,13.01
2022-09-10T02:26:53.467Z,13.05
2022-09-10T02:27:53.422Z,13.00
2022-09-10T02:28:53.392Z,12.94
2022-09-10T02:29:53.351Z,12.94
2022-09-10T02:30:53.416Z,12.90
2022-09-10T02:31:53.333Z,12.97
2022-09-10T02:32:53.273Z,12.93
2022-09-10T02:33:53.270Z,12.90
2022-09-10T02:34:53.187Z,12.85
2022-09-10T02:35:53.237Z,12.82
2022-09-10T02:36:53.204Z,12.79
2022-09-10T02:37:53.095Z,12.80
2022-09-10T02:38:53.196Z,12.86
2022-09-10T02:39:53.105Z,12.83
2022-09-10T02:40:52.990Z,12.90
2022-09-10T02:41:53.008Z,12.85
2022-09-10T02:42:52.927Z,12.82
2022-09-10T02:43:52.929Z,12.79
2022-09-10T02:44:52.878Z,12.80
2022-09-10T02:45:52.925Z,12.79
2022-09-10T02:46:52.890Z,12.82
2022-09-10T02:47:52.800Z,12.78
2022-09-10T02:48:52.733Z,12.72
2022-09-10T02:49:52.725Z,12.73
2022-09-10T02:50:52.696Z,12.72
2022-09-10T02:51:52.732Z,12.70
2022-09-10T02:52:52.603Z,12.70
2022-09-10T02:53:52.604Z,12.67
2022-09-10T02:54:52.560Z,12.65
2022-09-10T02:55:52.524Z,12.68
2022-09-10T02:56:52.523Z,12.67
2022-09-10T02:57:52.528Z,12.72
2022-09-10T02:58:52.432Z,12.73
2022-09-10T02:59:52.418Z,12.70
2022-09-10T03:00:52.437Z,12.80
2022-09-10T03:01:52.390Z,12.82
2022-09-10T03:02:52.404Z,12.70
2022-09-10T03:03:52.308Z,12.72
2022-09-10T03:04:52.276Z,12.82
2022-09-10T03:05:52.209Z,12.75
2022-09-10T03:06:52.210Z,12.78
2022-09-10T03:07:52.233Z,12.80
2022-09-10T03:08:52.093Z,12.80
2022-09-10T03:09:52.067Z,12.80
2022-09-10T03:10:52.043Z,12.76
2022-09-10T03:11:52.007Z,12.79
2022-09-10T03:12:52.020Z,12.76
2022-09-10T03:13:52.025Z,12.65
2022-09-10T03:14:51.917Z,12.72
2022-09-10T03:15:52.655Z,12.75
2022-09-10T03:16:51.878Z,12.60
2022-09-10T03:17:51.841Z,12.70
2022-09-10T03:18:51.851Z,12.55
2022-09-10T03:19:51.847Z,12.53
2022-09-10T03:20:51.768Z,12.58
2022-09-10T03:21:51.735Z,12.55
2022-09-10T03:22:51.675Z,12.58
2022-09-10T03:23:51.619Z,12.47
2022-09-10T03:24:51.652Z,12.46
2022-09-10T03:25:51.611Z,12.43
2022-09-10T03:26:51.535Z,12.46
2022-09-10T03:27:51.490Z,12.45
2022-09-10T03:28:51.487Z,12.45
2022-09-10T03:29:51.484Z,12.42
2022-09-10T03:30:51.464Z,12.45
2022-09-10T03:31:51.442Z,12.43
2022-09-10T03:32:51.335Z,12.42
2022-09-10T03:33:51.325Z,12.47
2022-09-10T03:34:51.295Z,12.47
2022-09-10T03:35:51.313Z,12.49
2022-09-10T03:36:51.240Z,12.49
2022-09-10T03:37:51.212Z,12.43
2022-09-10T03:38:51.166Z,12.47
2022-09-10T03:39:51.174Z,12.40
2022-09-10T03:40:51.195Z,12.42
2022-09-10T03:41:51.088Z,12.32
2022-09-10T03:42:51.014Z,12.39
2022-09-10T03:43:50.998Z,12.25
2022-09-10T03:44:50.961Z,12.27
2022-09-10T03:45:50.968Z,12.31
2022-09-10T03:46:51.015Z,12.20
2022-09-10T03:47:50.874Z,12.27
2022-09-10T03:48:54.698Z,12.27
2022-09-10T03:49:50.796Z,12.25
2022-09-10T03:50:51.649Z,12.25
2022-09-10T03:51:50.721Z,12.28
2022-09-10T03:52:51.542Z,12.37
2022-09-10T03:53:50.668Z,12.24
2022-09-10T03:54:50.668Z,12.28
2022-09-10T03:55:50.590Z,12.27
2022-09-10T03:56:50.609Z,12.31
2022-09-10T03:57:50.759Z,12.36
2022-09-10T03:58:50.504Z,12.35
2022-09-10T03:59:50.502Z,12.28
2022-09-10T04:00:50.534Z,12.29
2022-09-10T04:01:50.480Z,12.36
2022-09-10T04:02:50.411Z,12.29
2022-09-10T04:03:50.439Z,12.24
2022-09-10T04:04:50.310Z,12.25
2022-09-10T04:05:50.270Z,12.25
2022-09-10T04:06:50.240Z,12.29
2022-09-10T04:07:50.220Z,12.28
2022-09-10T04:08:50.181Z,12.27
2022-09-10T04:09:50.213Z,12.28
2022-09-10T04:10:50.113Z,12.29
2022-09-10T04:11:50.094Z,12.18
2022-09-10T04:12:53.548Z,12.18
2022-09-10T04:13:50.031Z,12.20
2022-09-10T04:14:50.060Z,12.09
2022-09-10T04:15:49.974Z,12.09
2022-09-10T04:16:49.962Z,12.13
2022-09-10T04:17:49.920Z,12.09
2022-09-10T04:18:49.889Z,12.07
2022-09-10T04:19:49.921Z,12.03
2022-09-10T04:20:49.789Z,11.99
2022-09-10T04:21:49.768Z,12.00
2022-09-10T04:22:49.776Z,11.97
2022-09-10T04:23:49.748Z,11.99
2022-09-10T04:24:49.685Z,11.95
2022-09-10T04:25:49.744Z,11.97
2022-09-10T04:26:49.675Z,11.94
2022-09-10T04:27:49.623Z,11.94
2022-09-10T04:28:49.563Z,11.91
2022-09-10T04:29:49.501Z,11.94
2022-09-10T04:30:49.529Z,11.97
2022-09-10T04:31:49.604Z,11.97
2022-09-10T04:32:49.531Z,12.09
2022-09-10T04:33:49.376Z,12.07
2022-09-10T04:34:49.415Z,12.09
2022-09-10T04:35:49.362Z,12.13
2022-09-10T04:36:49.274Z,12.12
2022-09-10T04:37:50.053Z,12.13
2022-09-10T04:38:49.226Z,12.21
2022-09-10T04:39:49.289Z,12.17
2022-09-10T04:40:50.064Z,12.20
2022-09-10T04:41:49.172Z,12.18
2022-09-10T04:42:49.102Z,12.17
2022-09-10T04:43:49.087Z,12.13
2022-09-10T04:44:49.017Z,12.07
2022-09-10T04:45:49.010Z,12.10
2022-09-10T04:46:49.060Z,11.97
2022-09-10T04:47:49.587Z,12.09
2022-09-10T04:48:48.903Z,12.09
2022-09-10T04:49:48.880Z,12.04
2022-09-10T04:51:14.396Z,12.00
2022-09-10T04:51:48.865Z,12.03
2022-09-10T04:52:48.858Z,12.00
2022-09-10T04:53:49.688Z,11.99
2022-09-10T04:54:48.702Z,11.99
2022-09-10T04:55:48.696Z,12.03
2022-09-10T04:56:48.730Z,11.97
2022-09-10T04:57:48.613Z,12.04
2022-09-10T04:58:48.576Z,12.03
2022-09-10T04:59:48.543Z,12.04
2022-09-10T05:00:48.531Z,12.10
2022-09-10T05:01:48.515Z,12.04
2022-09-10T05:02:48.495Z,12.06
2022-09-10T05:03:48.414Z,12.22
2022-09-10T05:04:48.376Z,12.20
2022-09-10T05:05:48.345Z,12.17
2022-09-10T05:06:48.306Z,12.27
2022-09-10T05:07:48.328Z,12.22
2022-09-10T05:08:48.244Z,12.29
2022-09-10T05:09:48.214Z,12.37
2022-09-10T05:10:48.180Z,12.39
2022-09-10T05:11:48.150Z,12.43
2022-09-10T05:12:48.174Z,12.43
2022-09-10T05:13:48.090Z,12.43
2022-09-10T05:14:48.052Z,12.49
2022-09-10T05:15:48.014Z,12.46
2022-09-10T05:16:48.056Z,12.45
2022-09-10T05:17:48.016Z,12.50
2022-09-10T05:18:47.926Z,12.49
2022-09-10T05:19:47.932Z,12.47
2022-09-10T05:20:47.861Z,12.45
2022-09-10T05:21:47.826Z,12.58
2022-09-10T05:22:47.849Z,12.57
2022-09-10T05:23:47.814Z,12.54
2022-09-10T05:24:47.729Z,12.64
2022-09-10T05:25:47.701Z,12.64
2022-09-10T05:26:47.678Z,12.68
2022-09-10T05:27:47.634Z,12.76
2022-09-10T05:28:47.661Z,12.73
2022-09-10T05:29:47.566Z,12.83
2022-09-10T05:30:51.539Z,12.76
2022-09-10T05:31:47.543Z,12.90
2022-09-10T05:32:47.526Z,12.93
2022-09-10T05:33:47.439Z,12.95
2022-09-10T05:34:47.466Z,12.93
2022-09-10T05:35:47.373Z,12.93
2022-09-10T05:36:47.345Z,12.91
2022-09-10T05:37:47.369Z,12.93
2022-09-10T05:38:47.280Z,12.98
2022-09-10T05:39:47.336Z,13.04
2022-09-10T05:40:47.219Z,13.05
2022-09-10T05:41:47.193Z,13.04
2022-09-10T05:42:47.153Z,13.03
2022-09-10T05:43:47.119Z,13.13
2022-09-10T05:44:47.165Z,13.09
2022-09-10T05:45:47.110Z,13.16
2022-09-10T05:46:47.027Z,13.22
2022-09-10T05:47:46.999Z,13.25
2022-09-10T05:48:47.172Z,13.19
2022-09-10T05:49:46.944Z,13.20
2022-09-10T05:50:46.955Z,13.28
2022-09-10T05:51:46.873Z,13.23
2022-09-10T05:52:46.839Z,13.15
2022-09-10T05:53:46.801Z,13.20
2022-09-10T05:54:46.783Z,13.27
2022-09-10T05:55:46.938Z,13.28
2022-09-10T05:56:46.718Z,13.28
2022-09-10T05:57:46.690Z,13.31
2022-09-10T05:58:46.652Z,13.42
2022-09-10T05:59:46.615Z,13.47
2022-09-10T06:00:46.586Z,13.46
2022-09-10T06:01:46.666Z,13.47
2022-09-10T06:02:46.608Z,13.60
2022-09-10T06:03:46.524Z,13.59
2022-09-10T06:04:46.477Z,13.62
2022-09-10T06:05:46.436Z,13.62
2022-09-10T06:06:46.478Z,13.63
2022-09-10T06:07:46.391Z,13.65
2022-09-10T06:08:46.333Z,13.77
2022-09-10T06:09:46.314Z,13.72
2022-09-10T06:10:46.289Z,13.72
2022-09-10T06:11:46.291Z,13.75
2022-09-10T06:12:46.208Z,13.86
2022-09-10T06:13:46.220Z,13.86
2022-09-10T06:14:46.156Z,13.89
2022-09-10T06:15:46.123Z,13.93
2022-09-10T06:16:46.205Z,13.93
2022-09-10T06:17:46.143Z,13.95
2022-09-10T06:18:46.027Z,13.95
2022-09-10T06:19:45.992Z,13.97
2022-09-10T06:20:45.959Z,14.04
2022-09-10T06:21:45.924Z,14.11
2022-09-10T06:22:45.951Z,14.22
2022-09-10T06:23:45.926Z,14.26
2022-09-10T06:24:45.842Z,14.25
2022-09-10T06:25:45.800Z,14.22
2022-09-10T06:26:51.580Z,14.36
2022-09-10T06:27:46.261Z,14.35
2022-09-10T06:28:45.708Z,14.30
2022-09-10T06:29:45.674Z,14.37
2022-09-10T06:30:45.676Z,14.44
2022-09-10T06:31:45.646Z,14.47
2022-09-10T06:32:45.589Z,14.48
2022-09-10T06:33:45.620Z,14.41
2022-09-10T06:34:51.583Z,14.51
2022-09-10T06:35:46.656Z,14.55
2022-09-10T06:36:47.586Z,14.58
2022-09-10T06:37:47.591Z,14.58
2022-09-10T06:38:51.090Z,14.60
2022-09-10T06:39:45.404Z,14.66
2022-09-10T06:40:45.336Z,14.72
2022-09-10T06:41:49.435Z,14.78
2022-09-10T06:42:45.280Z,14.79
2022-09-10T06:43:45.246Z,14.78
2022-09-10T06:44:45.268Z,14.82
2022-09-10T06:45:45.199Z,14.78
2022-09-10T06:48:48.088Z,15.02
2022-09-10T06:49:45.141Z,15.03
2022-09-10T06:50:45.027Z,15.09
2022-09-10T06:51:44.995Z,15.02
2022-09-10T06:52:44.966Z,15.14
2022-09-10T06:53:44.950Z,15.04
2022-09-10T06:54:44.973Z,15.09
2022-09-10T06:55:44.890Z,15.15
2022-09-10T06:56:46.519Z,15.15
2022-09-10T06:57:44.810Z,15.21
2022-09-10T06:58:44.783Z,15.29
2022-09-10T06:59:44.874Z,15.36
2022-09-10T07:00:44.718Z,15.37
2022-09-10T07:01:44.709Z,15.36
2022-09-10T07:02:44.656Z,15.37
2022-09-10T07:03:44.632Z,15.39
2022-09-10T07:04:44.608Z,15.44
2022-09-10T07:05:44.773Z,15.43
2022-09-10T07:06:44.538Z,15.55
2022-09-10T07:07:44.505Z,15.57
2022-09-10T07:08:44.479Z,15.58
2022-09-10T07:09:44.441Z,15.65
2022-09-10T07:10:44.417Z,15.73
2022-09-10T07:11:44.462Z,15.75
2022-09-10T07:12:44.360Z,15.79
2022-09-10T07:13:44.319Z,15.84
2022-09-10T07:14:44.291Z,15.80
2022-09-10T07:15:44.351Z,15.91
2022-09-10T07:16:44.310Z,15.95
2022-09-10T07:17:44.201Z,16.00
2022-09-10T07:18:44.171Z,16.00
2022-09-10T07:19:44.156Z,16.12
2022-09-10T07:20:44.122Z,16.17
2022-09-10T07:21:44.084Z,16.24
2022-09-10T07:22:44.103Z,16.28
2022-09-10T07:23:44.037Z,16.29
2022-09-10T07:24:43.988Z,16.33
2022-09-10T07:25:43.977Z,16.38
2022-09-10T07:26:43.929Z,16.50
2022-09-10T07:27:43.973Z,16.49
2022-09-10T07:28:43.867Z,16.54
2022-09-10T07:29:43.862Z,16.54
2022-09-10T07:30:43.885Z,16.56
2022-09-10T07:31:45.701Z,16.65
2022-09-10T07:32:43.750Z,16.61
2022-09-10T07:33:43.770Z,16.58
2022-09-10T07:34:43.687Z,16.64
2022-09-10T07:35:43.660Z,16.66
2022-09-10T07:36:43.626Z,16.68
2022-09-10T07:37:43.596Z,16.68
2022-09-10T07:38:43.621Z,16.69
2022-09-10T07:39:43.574Z,16.69
2022-09-10T07:40:43.515Z,16.72
2022-09-10T07:41:43.485Z,16.78
2022-09-10T07:42:43.449Z,16.83
2022-09-10T07:43:43.518Z,16.83
2022-09-10T07:44:43.383Z,16.86
2022-09-10T07:45:43.394Z,16.90
2022-09-10T07:46:43.327Z,16.89
2022-09-10T07:47:43.292Z,17.01
2022-09-10T07:48:43.272Z,17.09
2022-09-10T07:49:43.288Z,17.20
2022-09-10T07:50:43.205Z,17.30
2022-09-10T07:51:43.173Z,17.34
2022-09-10T07:52:43.150Z,17.33
2022-09-10T07:53:50.321Z,17.39
2022-09-10T07:54:43.161Z,17.45
2022-09-10T07:55:43.063Z,17.41
2022-09-10T07:56:43.034Z,17.52
2022-09-10T07:57:43.000Z,17.48
2022-09-10T07:58:42.973Z,17.54
2022-09-10T07:59:42.940Z,17.56
2022-09-10T08:00:42.967Z,17.56
2022-09-10T08:01:42.897Z,17.63
2022-09-10T08:02:42.856Z,17.70
2022-09-10T08:03:42.821Z,17.68
2022-09-10T08:04:42.799Z,17.65
2022-09-10T08:05:42.816Z,17.79
2022-09-10T08:06:42.729Z,17.65
2022-09-10T08:07:42.703Z,17.74
2022-09-10T08:08:42.669Z,17.76
2022-09-10T08:09:42.649Z,17.85
2022-09-10T08:10:42.690Z,17.85
2022-09-10T08:11:42.584Z,17.87
2022-09-10T08:12:42.557Z,17.90
2022-09-10T08:13:42.596Z,17.85
2022-09-10T08:14:42.504Z,17.95
2022-09-10T08:15:42.499Z,17.95
2022-09-10T08:16:44.423Z,17.90
2022-09-10T08:17:42.406Z,17.92
2022-09-10T08:18:42.381Z,17.94
2022-09-10T08:19:42.356Z,17.95
2022-09-10T08:20:42.338Z,18.04
2022-09-10T08:21:42.380Z,18.10
2022-09-10T08:22:42.268Z,18.05
2022-09-10T08:23:42.239Z,18.15
2022-09-10T08:24:42.204Z,18.16
2022-09-10T08:25:42.173Z,18.13
2022-09-10T08:26:42.141Z,18.13
2022-09-10T08:27:42.296Z,18.16
2022-09-10T08:28:42.193Z,18.19
2022-09-10T08:29:42.058Z,18.26
2022-09-10T08:30:42.067Z,18.26
2022-09-10T08:31:42.000Z,18.41
2022-09-10T08:32:41.974Z,18.45
2022-09-10T08:33:42.185Z,18.50
2022-09-10T08:34:41.915Z,18.59
2022-09-10T08:35:41.913Z,18.62
2022-09-10T08:36:41.856Z,18.78
2022-09-10T08:37:41.837Z,18.75
2022-09-10T08:38:41.798Z,18.81
2022-09-10T08:39:41.977Z,18.88
2022-09-10T08:40:41.741Z,18.99
2022-09-10T08:41:41.714Z,19.11
2022-09-10T08:42:41.689Z,19.11
2022-09-10T08:43:41.654Z,19.22
2022-09-10T08:44:41.629Z,19.40
2022-09-10T08:45:41.737Z,19.47
2022-09-10T08:46:41.572Z,19.54
2022-09-10T08:47:41.547Z,19.64
2022-09-10T08:48:41.519Z,19.67
2022-09-10T08:49:41.487Z,19.71
2022-09-10T08:50:41.471Z,19.79
2022-09-10T08:51:41.499Z,19.73
2022-09-10T08:52:41.405Z,19.76
2022-09-10T08:53:41.377Z,19.92
2022-09-10T08:54:41.348Z,19.94
2022-09-10T08:55:41.319Z,20.03
2022-09-10T08:56:41.289Z,20.14
2022-09-10T08:57:41.460Z,20.14
2022-09-10T08:58:41.363Z,20.16
2022-09-10T08:59:41.206Z,20.26
2022-09-10T09:00:41.182Z,20.28
2022-09-10T09:01:41.200Z,20.41
2022-09-10T09:02:49.686Z,20.43
2022-09-10T09:03:41.738Z,20.39
2022-09-10T09:04:41.069Z,20.55
2022-09-10T09:05:41.041Z,20.60
2022-09-10T09:06:41.042Z,20.63
2022-09-10T09:07:40.989Z,20.60
2022-09-10T09:08:41.594Z,20.58
2022-09-10T09:09:40.933Z,20.55
2022-09-10T09:10:40.903Z,20.60
2022-09-10T09:11:40.877Z,20.62
2022-09-10T09:12:40.851Z,20.66
2022-09-10T09:13:41.341Z,20.69
2022-09-10T09:14:40.796Z,20.75
2022-09-10T09:15:40.780Z,20.72
2022-09-10T09:16:40.742Z,20.72
2022-09-10T09:17:40.717Z,20.66
2022-09-10T09:18:40.774Z,20.75
2022-09-10T09:19:40.713Z,20.84
2022-09-10T09:20:40.637Z,20.81
2022-09-10T09:21:40.667Z,20.81
2022-09-10T09:22:40.584Z,20.87
2022-09-10T09:23:56.918Z,20.81
2022-09-10T09:24:40.579Z,20.81
2022-09-10T09:25:40.503Z,20.70
2022-09-10T09:26:40.481Z,20.77
2022-09-10T09:27:40.559Z,20.81
2022-09-10T09:28:40.480Z,20.95
2022-09-10T09:29:40.472Z,21.03
2022-09-10T09:30:40.368Z,21.17
2022-09-10T09:31:40.341Z,21.14
2022-09-10T09:32:40.319Z,21.09
2022-09-10T09:33:40.311Z,21.20
2022-09-10T09:34:41.017Z,21.25
2022-09-10T09:35:40.351Z,21.50
2022-09-10T09:36:40.219Z,21.60
2022-09-10T09:37:40.197Z,21.80
2022-09-10T09:38:40.257Z,21.77
2022-09-10T09:39:40.212Z,21.75
2022-09-10T09:40:40.157Z,21.79
2022-09-10T09:41:40.081Z,21.85
2022-09-10T09:42:40.056Z,21.96
2022-09-10T09:43:40.071Z,21.99
2022-09-10T09:44:39.997Z,22.11
2022-09-10T09:45:40.127Z,22.15
2022-09-10T09:46:40.041Z,22.14
2022-09-10T09:47:39.929Z,22.13
2022-09-10T09:48:40.049Z,22.22
2022-09-10T09:49:39.878Z,22.06
2022-09-10T09:50:39.871Z,22.00
2022-09-10T09:51:39.858Z,21.98
2022-09-10T09:52:39.882Z,21.85
2022-09-10T09:53:39.775Z,21.88
2022-09-10T09:55:10.258Z,21.83
2022-09-10T09:55:39.760Z,21.75
2022-09-10T09:56:39.731Z,21.62
2022-09-10T09:57:39.697Z,21.54
2022-09-10T09:58:39.854Z,21.39
2022-09-10T09:59:39.652Z,21.33
2022-09-10T10:00:39.677Z,21.24
2022-09-10T10:01:39.636Z,21.25
2022-09-10T10:02:39.582Z,21.24
2022-09-10T10:03:39.552Z,21.11
2022-09-10T10:04:42.242Z,21.21
2022-09-10T10:05:39.496Z,21.20
2022-09-10T10:06:39.444Z,21.35
2022-09-10T10:07:39.417Z,21.43
2022-09-10T10:08:39.552Z,21.50
2022-09-10T10:09:39.440Z,21.50
2022-09-10T10:10:39.387Z,21.55
2022-09-10T10:11:39.317Z,21.55
2022-09-10T10:12:39.317Z,21.43
2022-09-10T10:13:39.253Z,21.39
2022-09-10T10:14:39.264Z,21.40
2022-09-10T10:15:39.465Z,21.39
2022-09-10T10:16:39.225Z,21.58
2022-09-10T10:17:39.161Z,21.58
2022-09-10T10:18:39.340Z,21.70
2022-09-10T10:19:39.116Z,21.85
2022-09-10T10:20:39.653Z,21.92
2022-09-10T10:21:39.126Z,21.95
2022-09-10T10:22:39.019Z,21.91
2022-09-10T10:23:39.027Z,21.77
2022-09-10T10:24:38.989Z,21.85
2022-09-10T10:25:38.949Z,21.88
2022-09-10T10:26:38.970Z,21.88
2022-09-10T10:27:38.883Z,21.95
2022-09-10T10:28:38.868Z,21.96
2022-09-10T10:29:38.835Z,21.88
2022-09-10T10:30:38.825Z,22.02
2022-09-10T10:31:38.861Z,22.20
2022-09-10T10:32:38.837Z,22.26
2022-09-10T10:33:38.756Z,22.39
2022-09-10T10:34:38.723Z,22.36
2022-09-10T10:35:38.718Z,22.43
2022-09-10T10:36:38.671Z,22.39
2022-09-10T10:37:38.698Z,22.25
2022-09-10T10:38:38.625Z,21.98
2022-09-10T10:39:38.627Z,21.93
2022-09-10T10:40:38.557Z,21.99
2022-09-10T10:41:38.546Z,22.04
2022-09-10T10:42:38.713Z,22.07
2022-09-10T10:43:38.474Z,22.06
2022-09-10T10:44:38.458Z,22.06
2022-09-10T10:45:38.437Z,22.14
2022-09-10T10:46:38.445Z,22.28
2022-09-10T10:47:38.404Z,22.23
2022-09-10T10:48:38.433Z,22.17
2022-09-10T10:49:38.362Z,22.06
2022-09-10T10:50:38.305Z,22.07
2022-09-10T10:51:38.291Z,21.96
2022-09-10T10:52:38.246Z,21.96
2022-09-10T10:53:38.337Z,21.85
2022-09-10T10:54:38.198Z,21.77
2022-09-10T10:55:38.179Z,21.70
2022-09-10T10:56:38.153Z,21.54
2022-09-10T10:57:38.132Z,21.58
2022-09-10T10:58:38.234Z,21.57
2022-09-10T10:59:38.070Z,21.52
2022-09-10T11:00:38.051Z,21.62
2022-09-10T11:01:38.076Z,21.55
2022-09-10T11:02:38.071Z,21.69
2022-09-10T11:03:37.973Z,21.76
2022-09-10T11:04:38.005Z,21.85
2022-09-10T11:05:37.926Z,21.95
2022-09-10T11:06:37.935Z,21.89
2022-09-10T11:07:37.865Z,21.76
2022-09-10T11:08:37.868Z,21.73
2022-09-10T11:09:37.885Z,21.80
2022-09-10T11:10:37.783Z,21.85
2022-09-10T11:11:37.767Z,21.70
2022-09-10T11:12:37.736Z,21.76
2022-09-10T11:13:37.705Z,21.72
2022-09-10T11:14:37.756Z,21.83
2022-09-10T11:15:37.698Z,21.75
2022-09-10T11:16:40.572Z,21.75
2022-09-10T11:17:37.613Z,21.70
2022-09-10T11:18:37.617Z,21.54
2022-09-10T11:19:37.549Z,21.54
2022-09-10T11:20:37.615Z,21.64
2022-09-10T11:21:37.501Z,21.51
2022-09-10T11:22:37.496Z,21.33
2022-09-10T11:23:37.451Z,21.37
2022-09-10T11:24:37.450Z,21.43
2022-09-10T11:25:37.397Z,21.48
2022-09-10T11:26:37.431Z,21.57
2022-09-10T11:27:37.344Z,21.48
2022-09-10T11:28:37.313Z,21.54
2022-09-10T11:29:37.295Z,21.46
2022-09-10T11:30:37.268Z,21.50
2022-09-10T11:31:37.239Z,21.42
2022-09-10T11:32:37.307Z,21.54
2022-09-10T11:33:37.222Z,21.48
2022-09-10T11:34:37.169Z,21.60
2022-09-10T11:35:37.136Z,21.58
2022-09-10T11:36:37.119Z,21.62
2022-09-10T11:37:37.767Z,21.52
2022-09-10T11:38:37.149Z,21.55
2022-09-10T11:39:37.138Z,21.58
2022-09-10T11:40:37.051Z,21.64
2022-09-10T11:41:37.016Z,21.57
2022-09-10T11:42:36.943Z,21.52
2022-09-10T11:43:37.247Z,21.51
2022-09-10T11:44:36.904Z,21.55
2022-09-10T11:45:36.872Z,21.52
2022-09-10T11:46:36.921Z,21.50
2022-09-10T11:47:37.842Z,21.54
2022-09-10T11:48:36.822Z,21.64
2022-09-10T11:49:36.909Z,21.62
2022-09-10T11:50:36.736Z,21.57
2022-09-10T11:51:36.717Z,21.61
2022-09-10T11:52:36.694Z,21.67
2022-09-10T11:53:36.653Z,21.75
2022-09-10T11:54:36.682Z,21.61
2022-09-10T11:55:36.614Z,21.67
2022-09-10T11:56:36.596Z,21.72
2022-09-10T11:57:36.661Z,21.61
2022-09-10T11:58:36.513Z,21.61
2022-09-10T11:59:36.554Z,21.54
2022-09-10T12:00:36.523Z,21.70
2022-09-10T12:01:36.445Z,21.80
2022-09-10T12:02:36.417Z,21.89
2022-09-10T12:03:36.479Z,22.06
2022-09-10T12:04:39.990Z,22.11
2022-09-10T12:05:36.390Z,22.23
2022-09-10T12:06:36.309Z,22.29
2022-09-10T12:07:36.319Z,22.15
2022-09-10T12:08:36.286Z,22.13
2022-09-10T12:09:36.225Z,22.15
2022-09-10T12:10:36.260Z,22.17
2022-09-10T12:11:36.230Z,22.29
2022-09-10T12:12:36.151Z,22.25
2022-09-10T12:13:36.156Z,22.36
2022-09-10T12:14:36.096Z,22.44
2022-09-10T12:15:36.067Z,22.43
2022-09-10T12:16:36.389Z,22.38
2022-09-10T12:17:36.065Z,22.33
2022-09-10T12:18:38.754Z,22.45
2022-09-10T12:19:35.963Z,22.54
2022-09-10T12:20:35.999Z,22.73
2022-09-10T12:21:35.921Z,22.84
2022-09-10T12:22:36.137Z,23.05
2022-09-10T12:23:35.993Z,23.31
2022-09-10T12:24:35.854Z,23.51
2022-09-10T12:25:35.813Z,23.58
2022-09-10T12:26:35.783Z,23.80
2022-09-10T12:27:35.761Z,23.98
2022-09-10T12:28:35.813Z,23.99
2022-09-10T12:29:35.700Z,24.01
2022-09-10T12:30:35.679Z,24.10
2022-09-10T12:31:35.657Z,24.21
2022-09-10T12:32:35.635Z,24.45
2022-09-10T12:33:35.607Z,24.45
2022-09-10T12:34:35.633Z,24.43
2022-09-10T12:35:35.559Z,24.54
2022-09-10T12:36:35.534Z,24.68
2022-09-10T12:37:35.506Z,24.76
2022-09-10T12:38:35.482Z,24.78
2022-09-10T12:39:35.753Z,24.89
2022-09-10T12:40:35.432Z,24.93
2022-09-10T12:41:35.435Z,25.11
2022-09-10T12:42:35.396Z,25.29
2022-09-10T12:43:35.362Z,25.65
2022-09-10T12:44:35.347Z,25.81
2022-09-10T12:45:35.403Z,25.78
2022-09-10T12:46:35.340Z,25.84
2022-09-10T12:47:35.267Z,25.83
2022-09-10T12:48:35.240Z,25.70
2022-09-10T12:49:35.222Z,25.72
2022-09-10T12:50:35.194Z,25.44
2022-09-10T12:51:35.238Z,25.46
2022-09-10T12:52:35.158Z,25.59
2022-09-10T12:53:35.123Z,25.53
2022-09-10T12:54:35.120Z,25.44